sensor_id;sensor_type;location;lat;lon;timestamp;P1;durP1;ratioP1;P2;durP2;ratioP2
9848;SDS011;4963;51.444;6.528;2022-11-15T00:00:27;14.37;;;10.83;;
9848;SDS011;4963;51.444;6.528;2022-11-15T00:02:54;13.67;;;10.37;;
9848;SDS011;4963;51.444;6.528;2022-11-15T00:05:21;17.87;;;10.87;;
9848;SDS011;4963;51.444;6.528;2022-11-15T00:07:48;13.57;;;10.53;;
9848;SDS011;4963;51.444;6.528;2022-11-15T00:10:16;13.70;;;10.10;;
9848;SDS011;4963;51.444;6.528;2022-11-15T00:12:43;12.97;;;10.70;;
9848;SDS011;4963;51.444;6.528;2022-11-15T00:15:10;15.20;;;10.27;;
9848;SDS011;4963;51.444;6.528;2022-11-15T00:17:37;14.90;;;10.00;;
9848;SDS011;4963;51.444;6.528;2022-11-15T00:20:04;13.43;;;9.97;;
9848;SDS011;4963;51.444;6.528;2022-11-15T00:22:31;14.83;;;10.67;;
9848;SDS011;4963;51.444;6.528;2022-11-15T00:24:58;15.87;;;10.70;;
9848;SDS011;4963;51.444;6.528;2022-11-15T00:27:27;13.87;;;10.63;;
9848;SDS011;4963;51.444;6.528;2022-11-15T00:29:53;12.70;;;10.60;;
9848;SDS011;4963;51.444;6.528;2022-11-15T00:32:20;12.47;;;10.30;;
9848;SDS011;4963;51.444;6.528;2022-11-15T00:34:47;12.67;;;9.97;;
9848;SDS011;4963;51.444;6.528;2022-11-15T00:37:14;13.73;;;10.70;;
9848;SDS011;4963;51.444;6.528;2022-11-15T00:39:40;12.13;;;10.43;;
9848;SDS011;4963;51.444;6.528;2022-11-15T00:42:07;13.93;;;9.97;;
9848;SDS011;4963;51.444;6.528;2022-11-15T00:44:35;13.73;;;10.47;;
9848;SDS011;4963;51.444;6.528;2022-11-15T00:47:02;15.57;;;10.37;;
9848;SDS011;4963;51.444;6.528;2022-11-15T00:49:29;15.03;;;10.37;;
9848;SDS011;4963;51.444;6.528;2022-11-15T00:51:56;17.80;;;10.20;;
9848;SDS011;4963;51.444;6.528;2022-11-15T00:54:22;13.27;;;10.07;;
9848;SDS011;4963;51.444;6.528;2022-11-15T00:56:49;12.43;;;9.67;;
9848;SDS011;4963;51.444;6.528;2022-11-15T00:59:16;16.10;;;9.43;;
9848;SDS011;4963;51.444;6.528;2022-11-15T01:01:44;14.03;;;9.70;;
9848;SDS011;4963;51.444;6.528;2022-11-15T01:04:11;13.40;;;9.73;;
9848;SDS011;4963;51.444;6.528;2022-11-15T01:06:38;12.63;;;9.70;;
9848;SDS011;4963;51.444;6.528;2022-11-15T01:09:04;12.47;;;9.90;;
9848;SDS011;4963;51.444;6.528;2022-11-15T01:11:31;10.17;;;8.87;;
9848;SDS011;4963;51.444;6.528;2022-11-15T01:13:58;10.93;;;9.23;;
9848;SDS011;4963;51.444;6.528;2022-11-15T01:16:24;13.33;;;10.13;;
9848;SDS011;4963;51.444;6.528;2022-11-15T01:18:53;13.47;;;10.33;;
9848;SDS011;4963;51.444;6.528;2022-11-15T01:21:19;11.57;;;9.13;;
9848;SDS011;4963;51.444;6.528;2022-11-15T01:23:46;12.20;;;9.10;;
9848;SDS011;4963;51.444;6.528;2022-11-15T01:26:13;14.00;;;10.17;;
9848;SDS011;4963;51.444;6.528;2022-11-15T01:28:41;11.33;;;9.27;;
9848;SDS011;4963;51.444;6.528;2022-11-15T01:31:09;13.53;;;10.10;;
9848;SDS011;4963;51.444;6.528;2022-11-15T01:33:39;12.73;;;8.90;;
9848;SDS011;4963;51.444;6.528;2022-11-15T01:36:08;13.93;;;9.70;;
9848;SDS011;4963;51.444;6.528;2022-11-15T01:38:37;13.30;;;9.17;;
9848;SDS011;4963;51.444;6.528;2022-11-15T01:41:04;13.30;;;9.70;;
9848;SDS011;4963;51.444;6.528;2022-11-15T01:43:32;11.80;;;8.70;;
9848;SDS011;4963;51.444;6.528;2022-11-15T01:46:00;10.80;;;9.13;;
9848;SDS011;4963;51.444;6.528;2022-11-15T01:48:32;10.87;;;8.37;;
9848;SDS011;4963;51.444;6.528;2022-11-15T01:51:00;13.77;;;8.93;;
9848;SDS011;4963;51.444;6.528;2022-11-15T01:53:32;15.10;;;9.43;;
9848;SDS011;4963;51.444;6.528;2022-11-15T01:56:01;13.10;;;9.27;;
9848;SDS011;4963;51.444;6.528;2022-11-15T01:58:30;12.17;;;8.80;;
9848;SDS011;4963;51.444;6.528;2022-11-15T02:00:57;11.90;;;8.17;;
9848;SDS011;4963;51.444;6.528;2022-11-15T02:03:25;12.13;;;8.80;;
9848;SDS011;4963;51.444;6.528;2022-11-15T02:05:56;14.60;;;9.23;;
9848;SDS011;4963;51.444;6.528;2022-11-15T02:08:23;12.97;;;9.37;;
9848;SDS011;4963;51.444;6.528;2022-11-15T02:10:52;12.23;;;9.57;;
9848;SDS011;4963;51.444;6.528;2022-11-15T02:13:18;12.17;;;9.27;;
9848;SDS011;4963;51.444;6.528;2022-11-15T02:15:48;14.20;;;9.40;;
9848;SDS011;4963;51.444;6.528;2022-11-15T02:18:26;10.23;;;8.33;;
9848;SDS011;4963;51.444;6.528;2022-11-15T02:27:11;12.13;;;9.63;;
9848;SDS011;4963;51.444;6.528;2022-11-15T02:30:13;12.10;;;9.47;;
9848;SDS011;4963;51.444;6.528;2022-11-15T02:32:52;10.83;;;8.70;;
9848;SDS011;4963;51.444;6.528;2022-11-15T02:35:26;13.37;;;8.93;;
9848;SDS011;4963;51.444;6.528;2022-11-15T02:37:59;11.60;;;8.90;;
9848;SDS011;4963;51.444;6.528;2022-11-15T02:40:34;12.27;;;8.60;;
9848;SDS011;4963;51.444;6.528;2022-11-15T02:43:08;12.70;;;9.50;;
9848;SDS011;4963;51.444;6.528;2022-11-15T02:45:56;10.37;;;8.67;;
9848;SDS011;4963;51.444;6.528;2022-11-15T02:48:28;12.00;;;8.60;;
9848;SDS011;4963;51.444;6.528;2022-11-15T02:50:55;11.13;;;8.07;;
9848;SDS011;4963;51.444;6.528;2022-11-15T02:53:23;11.83;;;8.67;;
9848;SDS011;4963;51.444;6.528;2022-11-15T02:55:51;10.93;;;8.60;;
9848;SDS011;4963;51.444;6.528;2022-11-15T02:58:22;12.17;;;8.23;;
9848;SDS011;4963;51.444;6.528;2022-11-15T03:01:13;13.07;;;8.33;;
9848;SDS011;4963;51.444;6.528;2022-11-15T03:03:53;11.20;;;8.80;;
9848;SDS011;4963;51.444;6.528;2022-11-15T03:06:30;9.63;;;8.23;;
9848;SDS011;4963;51.444;6.528;2022-11-15T03:09:05;11.23;;;8.20;;
9848;SDS011;4963;51.444;6.528;2022-11-15T03:11:39;10.23;;;8.27;;
9848;SDS011;4963;51.444;6.528;2022-11-15T03:14:13;10.30;;;7.57;;
9848;SDS011;4963;51.444;6.528;2022-11-15T03:16:50;10.47;;;8.30;;
9848;SDS011;4963;51.444;6.528;2022-11-15T03:19:28;13.23;;;9.00;;
9848;SDS011;4963;51.444;6.528;2022-11-15T03:21:59;10.07;;;8.50;;
9848;SDS011;4963;51.444;6.528;2022-11-15T03:24:29;10.53;;;7.70;;
9848;SDS011;4963;51.444;6.528;2022-11-15T03:27:00;10.67;;;7.60;;
9848;SDS011;4963;51.444;6.528;2022-11-15T03:29:29;9.23;;;7.97;;
9848;SDS011;4963;51.444;6.528;2022-11-15T03:32:02;11.37;;;8.03;;
9848;SDS011;4963;51.444;6.528;2022-11-15T03:34:33;11.87;;;8.03;;
9848;SDS011;4963;51.444;6.528;2022-11-15T03:37:04;9.97;;;7.13;;
9848;SDS011;4963;51.444;6.528;2022-11-15T03:39:31;9.07;;;6.80;;
9848;SDS011;4963;51.444;6.528;2022-11-15T03:42:02;10.27;;;7.97;;
9848;SDS011;4963;51.444;6.528;2022-11-15T03:44:40;9.07;;;8.10;;
9848;SDS011;4963;51.444;6.528;2022-11-15T03:47:14;11.70;;;8.13;;
9848;SDS011;4963;51.444;6.528;2022-11-15T03:49:46;10.27;;;7.40;;
9848;SDS011;4963;51.444;6.528;2022-11-15T03:52:17;12.10;;;7.87;;
9848;SDS011;4963;51.444;6.528;2022-11-15T03:54:49;10.77;;;8.43;;
9848;SDS011;4963;51.444;6.528;2022-11-15T03:57:16;9.33;;;8.20;;
9848;SDS011;4963;51.444;6.528;2022-11-15T03:59:43;13.17;;;8.10;;
9848;SDS011;4963;51.444;6.528;2022-11-15T04:02:10;10.83;;;8.47;;
9848;SDS011;4963;51.444;6.528;2022-11-15T04:04:38;11.07;;;8.03;;
9848;SDS011;4963;51.444;6.528;2022-11-15T04:07:05;12.03;;;8.10;;
9848;SDS011;4963;51.444;6.528;2022-11-15T04:09:32;11.13;;;8.30;;
9848;SDS011;4963;51.444;6.528;2022-11-15T04:12:19;10.13;;;9.10;;
9848;SDS011;4963;51.444;6.528;2022-11-15T04:14:55;14.33;;;9.43;;
9848;SDS011;4963;51.444;6.528;2022-11-15T04:17:33;11.37;;;9.30;;
9848;SDS011;4963;51.444;6.528;2022-11-15T04:20:01;10.87;;;8.93;;
9848;SDS011;4963;51.444;6.528;2022-11-15T04:22:46;15.00;;;9.40;;
9848;SDS011;4963;51.444;6.528;2022-11-15T04:25:30;10.67;;;9.30;;
9848;SDS011;4963;51.444;6.528;2022-11-15T04:27:57;11.07;;;9.13;;
9848;SDS011;4963;51.444;6.528;2022-11-15T04:30:23;13.07;;;10.70;;
9848;SDS011;4963;51.444;6.528;2022-11-15T04:32:50;12.43;;;9.47;;
9848;SDS011;4963;51.444;6.528;2022-11-15T04:35:19;11.60;;;9.83;;
9848;SDS011;4963;51.444;6.528;2022-11-15T04:37:46;14.37;;;9.80;;
9848;SDS011;4963;51.444;6.528;2022-11-15T04:40:11;15.20;;;10.80;;
9848;SDS011;4963;51.444;6.528;2022-11-15T04:42:40;13.23;;;9.67;;
9848;SDS011;4963;51.444;6.528;2022-11-15T04:45:07;15.00;;;10.23;;
9848;SDS011;4963;51.444;6.528;2022-11-15T04:47:35;14.60;;;10.57;;
9848;SDS011;4963;51.444;6.528;2022-11-15T04:50:02;12.77;;;10.13;;
9848;SDS011;4963;51.444;6.528;2022-11-15T04:52:30;11.77;;;10.13;;
9848;SDS011;4963;51.444;6.528;2022-11-15T04:54:57;15.70;;;11.47;;
9848;SDS011;4963;51.444;6.528;2022-11-15T04:57:24;16.63;;;11.40;;
9848;SDS011;4963;51.444;6.528;2022-11-15T04:59:51;14.60;;;11.07;;
9848;SDS011;4963;51.444;6.528;2022-11-15T05:02:17;11.77;;;9.87;;
9848;SDS011;4963;51.444;6.528;2022-11-15T05:04:44;12.50;;;10.67;;
9848;SDS011;4963;51.444;6.528;2022-11-15T05:07:10;14.20;;;10.93;;
9848;SDS011;4963;51.444;6.528;2022-11-15T05:09:38;16.50;;;11.63;;
9848;SDS011;4963;51.444;6.528;2022-11-15T05:12:05;12.97;;;10.67;;
9848;SDS011;4963;51.444;6.528;2022-11-15T05:14:32;14.50;;;11.00;;
9848;SDS011;4963;51.444;6.528;2022-11-15T05:16:59;11.87;;;10.57;;
9848;SDS011;4963;51.444;6.528;2022-11-15T05:19:26;12.63;;;10.87;;
9848;SDS011;4963;51.444;6.528;2022-11-15T05:21:53;15.13;;;11.50;;
9848;SDS011;4963;51.444;6.528;2022-11-15T05:24:20;14.77;;;10.77;;
9848;SDS011;4963;51.444;6.528;2022-11-15T05:26:48;13.97;;;10.47;;
9848;SDS011;4963;51.444;6.528;2022-11-15T05:29:15;16.07;;;10.87;;
9848;SDS011;4963;51.444;6.528;2022-11-15T05:31:41;14.70;;;10.47;;
9848;SDS011;4963;51.444;6.528;2022-11-15T05:34:08;11.93;;;9.60;;
9848;SDS011;4963;51.444;6.528;2022-11-15T05:36:36;13.63;;;11.20;;
9848;SDS011;4963;51.444;6.528;2022-11-15T05:39:05;11.23;;;9.60;;
9848;SDS011;4963;51.444;6.528;2022-11-15T05:41:34;14.43;;;9.70;;
9848;SDS011;4963;51.444;6.528;2022-11-15T05:44:05;11.43;;;9.73;;
9848;SDS011;4963;51.444;6.528;2022-11-15T05:46:33;12.33;;;9.20;;
9848;SDS011;4963;51.444;6.528;2022-11-15T05:49:01;12.50;;;9.93;;
9848;SDS011;4963;51.444;6.528;2022-11-15T05:51:28;11.00;;;9.47;;
9848;SDS011;4963;51.444;6.528;2022-11-15T05:53:56;12.87;;;9.67;;
9848;SDS011;4963;51.444;6.528;2022-11-15T05:56:24;12.80;;;10.23;;
9848;SDS011;4963;51.444;6.528;2022-11-15T05:58:52;10.87;;;9.23;;
9848;SDS011;4963;51.444;6.528;2022-11-15T06:01:21;13.13;;;9.97;;
9848;SDS011;4963;51.444;6.528;2022-11-15T06:03:49;12.80;;;9.73;;
9848;SDS011;4963;51.444;6.528;2022-11-15T06:06:15;14.27;;;9.80;;
9848;SDS011;4963;51.444;6.528;2022-11-15T06:08:42;11.70;;;9.47;;
9848;SDS011;4963;51.444;6.528;2022-11-15T06:11:09;12.60;;;10.00;;
9848;SDS011;4963;51.444;6.528;2022-11-15T06:13:36;11.40;;;9.20;;
9848;SDS011;4963;51.444;6.528;2022-11-15T06:16:02;10.37;;;8.70;;
9848;SDS011;4963;51.444;6.528;2022-11-15T06:18:32;11.60;;;8.60;;
9848;SDS011;4963;51.444;6.528;2022-11-15T06:21:00;12.30;;;9.30;;
9848;SDS011;4963;51.444;6.528;2022-11-15T06:23:27;9.53;;;8.40;;
9848;SDS011;4963;51.444;6.528;2022-11-15T06:25:57;10.93;;;8.50;;
9848;SDS011;4963;51.444;6.528;2022-11-15T06:28:24;10.77;;;8.83;;
9848;SDS011;4963;51.444;6.528;2022-11-15T06:30:50;10.57;;;8.50;;
9848;SDS011;4963;51.444;6.528;2022-11-15T06:33:17;9.57;;;8.53;;
9848;SDS011;4963;51.444;6.528;2022-11-15T06:35:45;9.20;;;8.20;;
9848;SDS011;4963;51.444;6.528;2022-11-15T06:38:12;11.07;;;8.70;;
9848;SDS011;4963;51.444;6.528;2022-11-15T06:40:39;9.20;;;8.20;;
9848;SDS011;4963;51.444;6.528;2022-11-15T06:43:06;8.93;;;7.13;;
9848;SDS011;4963;51.444;6.528;2022-11-15T06:45:33;10.27;;;8.23;;
9848;SDS011;4963;51.444;6.528;2022-11-15T06:48:00;9.53;;;7.80;;
9848;SDS011;4963;51.444;6.528;2022-11-15T06:50:26;10.13;;;7.60;;
9848;SDS011;4963;51.444;6.528;2022-11-15T06:52:55;9.63;;;7.30;;
9848;SDS011;4963;51.444;6.528;2022-11-15T06:55:26;11.87;;;7.90;;
9848;SDS011;4963;51.444;6.528;2022-11-15T06:57:53;8.57;;;7.40;;
9848;SDS011;4963;51.444;6.528;2022-11-15T07:00:20;9.63;;;7.57;;
9848;SDS011;4963;51.444;6.528;2022-11-15T07:02:48;8.57;;;7.03;;
9848;SDS011;4963;51.444;6.528;2022-11-15T07:05:15;7.43;;;6.63;;
9848;SDS011;4963;51.444;6.528;2022-11-15T07:07:41;9.73;;;6.73;;
9848;SDS011;4963;51.444;6.528;2022-11-15T07:10:10;10.30;;;6.83;;
9848;SDS011;4963;51.444;6.528;2022-11-15T07:12:36;7.53;;;5.93;;
9848;SDS011;4963;51.444;6.528;2022-11-15T07:15:04;8.80;;;6.73;;
9848;SDS011;4963;51.444;6.528;2022-11-15T07:17:31;7.63;;;6.83;;
9848;SDS011;4963;51.444;6.528;2022-11-15T07:19:58;8.00;;;6.63;;
9848;SDS011;4963;51.444;6.528;2022-11-15T07:22:25;12.20;;;6.37;;
9848;SDS011;4963;51.444;6.528;2022-11-15T07:24:51;6.83;;;5.80;;
9848;SDS011;4963;51.444;6.528;2022-11-15T07:27:20;8.40;;;6.47;;
9848;SDS011;4963;51.444;6.528;2022-11-15T07:29:47;7.43;;;5.83;;
9848;SDS011;4963;51.444;6.528;2022-11-15T07:32:13;7.73;;;5.90;;
9848;SDS011;4963;51.444;6.528;2022-11-15T07:34:41;8.23;;;4.57;;
9848;SDS011;4963;51.444;6.528;2022-11-15T07:37:08;5.57;;;4.43;;
9848;SDS011;4963;51.444;6.528;2022-11-15T07:39:34;3.97;;;3.47;;
9848;SDS011;4963;51.444;6.528;2022-11-15T07:42:01;4.40;;;3.87;;
9848;SDS011;4963;51.444;6.528;2022-11-15T07:44:47;5.30;;;3.63;;
9848;SDS011;4963;51.444;6.528;2022-11-15T07:47:14;4.10;;;3.40;;
9848;SDS011;4963;51.444;6.528;2022-11-15T07:49:41;4.10;;;3.20;;
9848;SDS011;4963;51.444;6.528;2022-11-15T07:52:08;7.40;;;3.47;;
9848;SDS011;4963;51.444;6.528;2022-11-15T07:54:34;3.83;;;3.20;;
9848;SDS011;4963;51.444;6.528;2022-11-15T07:57:01;5.67;;;3.40;;
9848;SDS011;4963;51.444;6.528;2022-11-15T07:59:28;4.43;;;3.27;;
9848;SDS011;4963;51.444;6.528;2022-11-15T08:01:56;6.33;;;3.50;;
9848;SDS011;4963;51.444;6.528;2022-11-15T08:04:23;4.90;;;3.30;;
9848;SDS011;4963;51.444;6.528;2022-11-15T08:06:50;4.90;;;3.77;;
9848;SDS011;4963;51.444;6.528;2022-11-15T08:09:16;5.43;;;3.87;;
9848;SDS011;4963;51.444;6.528;2022-11-15T08:11:43;4.93;;;2.87;;
9848;SDS011;4963;51.444;6.528;2022-11-15T08:14:10;3.53;;;2.20;;
9848;SDS011;4963;51.444;6.528;2022-11-15T08:16:37;4.77;;;2.33;;
9848;SDS011;4963;51.444;6.528;2022-11-15T08:19:05;4.10;;;2.50;;
9848;SDS011;4963;51.444;6.528;2022-11-15T08:21:32;3.73;;;2.20;;
9848;SDS011;4963;51.444;6.528;2022-11-15T08:23:58;3.63;;;2.20;;
9848;SDS011;4963;51.444;6.528;2022-11-15T08:26:25;5.00;;;2.23;;
9848;SDS011;4963;51.444;6.528;2022-11-15T08:28:54;2.47;;;1.80;;
9848;SDS011;4963;51.444;6.528;2022-11-15T08:31:21;2.67;;;1.90;;
9848;SDS011;4963;51.444;6.528;2022-11-15T08:33:48;3.43;;;2.00;;
9848;SDS011;4963;51.444;6.528;2022-11-15T08:36:16;4.57;;;2.27;;
9848;SDS011;4963;51.444;6.528;2022-11-15T08:38:43;4.93;;;2.23;;
9848;SDS011;4963;51.444;6.528;2022-11-15T08:41:11;3.10;;;1.83;;
9848;SDS011;4963;51.444;6.528;2022-11-15T08:43:40;4.03;;;2.07;;
9848;SDS011;4963;51.444;6.528;2022-11-15T08:46:07;4.23;;;2.27;;
9848;SDS011;4963;51.444;6.528;2022-11-15T08:48:37;3.37;;;2.10;;
9848;SDS011;4963;51.444;6.528;2022-11-15T08:51:04;4.57;;;2.30;;
9848;SDS011;4963;51.444;6.528;2022-11-15T08:53:32;5.97;;;3.03;;
9848;SDS011;4963;51.444;6.528;2022-11-15T08:55:59;3.13;;;2.83;;
9848;SDS011;4963;51.444;6.528;2022-11-15T08:58:26;4.50;;;2.30;;
9848;SDS011;4963;51.444;6.528;2022-11-15T09:00:53;3.33;;;2.23;;
9848;SDS011;4963;51.444;6.528;2022-11-15T09:03:20;6.73;;;2.57;;
9848;SDS011;4963;51.444;6.528;2022-11-15T09:05:47;4.50;;;2.70;;
9848;SDS011;4963;51.444;6.528;2022-11-15T09:08:13;2.40;;;2.10;;
9848;SDS011;4963;51.444;6.528;2022-11-15T09:10:42;4.70;;;2.43;;
9848;SDS011;4963;51.444;6.528;2022-11-15T09:13:08;2.50;;;2.03;;
9848;SDS011;4963;51.444;6.528;2022-11-15T09:15:35;4.20;;;2.20;;
9848;SDS011;4963;51.444;6.528;2022-11-15T09:18:02;3.37;;;2.00;;
9848;SDS011;4963;51.444;6.528;2022-11-15T09:20:29;2.73;;;1.90;;
9848;SDS011;4963;51.444;6.528;2022-11-15T09:22:58;4.53;;;2.50;;
9848;SDS011;4963;51.444;6.528;2022-11-15T09:25:26;3.93;;;2.00;;
9848;SDS011;4963;51.444;6.528;2022-11-15T09:27:54;2.53;;;1.60;;
9848;SDS011;4963;51.444;6.528;2022-11-15T09:30:21;2.20;;;1.80;;
9848;SDS011;4963;51.444;6.528;2022-11-15T09:32:48;6.70;;;2.00;;
9848;SDS011;4963;51.444;6.528;2022-11-15T09:35:15;4.30;;;2.03;;
9848;SDS011;4963;51.444;6.528;2022-11-15T09:37:42;2.97;;;2.17;;
9848;SDS011;4963;51.444;6.528;2022-11-15T09:40:10;3.80;;;2.13;;
9848;SDS011;4963;51.444;6.528;2022-11-15T09:42:45;3.67;;;2.60;;
9848;SDS011;4963;51.444;6.528;2022-11-15T09:45:20;5.87;;;2.20;;
9848;SDS011;4963;51.444;6.528;2022-11-15T09:47:56;2.50;;;2.10;;
9848;SDS011;4963;51.444;6.528;2022-11-15T09:50:52;3.60;;;2.30;;
9848;SDS011;4963;51.444;6.528;2022-11-15T09:53:25;2.80;;;2.27;;
9848;SDS011;4963;51.444;6.528;2022-11-15T09:55:57;2.53;;;1.70;;
9848;SDS011;4963;51.444;6.528;2022-11-15T09:58:26;3.03;;;1.90;;
9848;SDS011;4963;51.444;6.528;2022-11-15T10:01:04;3.43;;;1.83;;
9848;SDS011;4963;51.444;6.528;2022-11-15T10:03:37;2.20;;;1.40;;
9848;SDS011;4963;51.444;6.528;2022-11-15T10:06:08;2.53;;;1.60;;
9848;SDS011;4963;51.444;6.528;2022-11-15T10:08:46;3.60;;;1.77;;
9848;SDS011;4963;51.444;6.528;2022-11-15T10:11:20;3.00;;;1.87;;
9848;SDS011;4963;51.444;6.528;2022-11-15T10:13:50;2.43;;;1.47;;
9848;SDS011;4963;51.444;6.528;2022-11-15T10:16:25;3.47;;;1.50;;
9848;SDS011;4963;51.444;6.528;2022-11-15T10:19:07;5.97;;;2.10;;
9848;SDS011;4963;51.444;6.528;2022-11-15T10:21:40;2.47;;;2.00;;
9848;SDS011;4963;51.444;6.528;2022-11-15T10:24:19;3.47;;;1.70;;
9848;SDS011;4963;51.444;6.528;2022-11-15T10:26:50;3.67;;;1.97;;
9848;SDS011;4963;51.444;6.528;2022-11-15T10:29:18;3.57;;;1.77;;
9848;SDS011;4963;51.444;6.528;2022-11-15T10:31:47;3.00;;;2.33;;
9848;SDS011;4963;51.444;6.528;2022-11-15T10:34:15;4.83;;;2.20;;
9848;SDS011;4963;51.444;6.528;2022-11-15T10:36:44;3.93;;;1.80;;
9848;SDS011;4963;51.444;6.528;2022-11-15T10:39:12;5.23;;;1.93;;
9848;SDS011;4963;51.444;6.528;2022-11-15T10:41:41;2.50;;;1.97;;
9848;SDS011;4963;51.444;6.528;2022-11-15T10:44:11;3.13;;;1.57;;
9848;SDS011;4963;51.444;6.528;2022-11-15T10:46:44;2.80;;;1.67;;
9848;SDS011;4963;51.444;6.528;2022-11-15T10:49:15;2.97;;;1.80;;
9848;SDS011;4963;51.444;6.528;2022-11-15T10:51:45;4.77;;;2.10;;
9848;SDS011;4963;51.444;6.528;2022-11-15T10:54:17;5.07;;;1.97;;
9848;SDS011;4963;51.444;6.528;2022-11-15T10:56:49;6.93;;;2.50;;
9848;SDS011;4963;51.444;6.528;2022-11-15T10:59:20;2.50;;;1.80;;
9848;SDS011;4963;51.444;6.528;2022-11-15T11:01:52;4.10;;;2.23;;
9848;SDS011;4963;51.444;6.528;2022-11-15T11:04:20;4.70;;;2.07;;
9848;SDS011;4963;51.444;6.528;2022-11-15T11:06:49;2.80;;;1.87;;
9848;SDS011;4963;51.444;6.528;2022-11-15T11:09:27;5.80;;;2.37;;
9848;SDS011;4963;51.444;6.528;2022-11-15T11:11:56;7.60;;;2.63;;
9848;SDS011;4963;51.444;6.528;2022-11-15T11:14:24;5.60;;;2.13;;
9848;SDS011;4963;51.444;6.528;2022-11-15T11:16:53;4.00;;;2.13;;
9848;SDS011;4963;51.444;6.528;2022-11-15T11:19:30;5.57;;;2.10;;
9848;SDS011;4963;51.444;6.528;2022-11-15T11:22:09;3.20;;;1.87;;
9848;SDS011;4963;51.444;6.528;2022-11-15T11:24:44;4.57;;;2.00;;
9848;SDS011;4963;51.444;6.528;2022-11-15T11:27:18;2.67;;;2.03;;
9848;SDS011;4963;51.444;6.528;2022-11-15T11:30:00;4.57;;;1.67;;
9848;SDS011;4963;51.444;6.528;2022-11-15T11:32:34;5.60;;;2.50;;
9848;SDS011;4963;51.444;6.528;2022-11-15T11:35:28;3.40;;;1.60;;
9848;SDS011;4963;51.444;6.528;2022-11-15T11:38:01;3.70;;;1.50;;
9848;SDS011;4963;51.444;6.528;2022-11-15T11:40:43;4.63;;;1.87;;
9848;SDS011;4963;51.444;6.528;2022-11-15T11:43:14;3.93;;;1.73;;
9848;SDS011;4963;51.444;6.528;2022-11-15T11:48:40;5.23;;;1.83;;
9848;SDS011;4963;51.444;6.528;2022-11-15T11:51:12;3.90;;;1.73;;
9848;SDS011;4963;51.444;6.528;2022-11-15T11:53:46;3.20;;;1.60;;
9848;SDS011;4963;51.444;6.528;2022-11-15T11:56:21;2.40;;;1.40;;
9848;SDS011;4963;51.444;6.528;2022-11-15T11:58:52;5.03;;;1.47;;
9848;SDS011;4963;51.444;6.528;2022-11-15T12:01:23;2.90;;;1.80;;
9848;SDS011;4963;51.444;6.528;2022-11-15T12:03:54;3.77;;;1.90;;
9848;SDS011;4963;51.444;6.528;2022-11-15T12:06:26;1.90;;;1.43;;
9848;SDS011;4963;51.444;6.528;2022-11-15T12:08:58;5.13;;;1.67;;
9848;SDS011;4963;51.444;6.528;2022-11-15T12:11:32;4.63;;;1.40;;
9848;SDS011;4963;51.444;6.528;2022-11-15T12:14:09;2.70;;;1.30;;
9848;SDS011;4963;51.444;6.528;2022-11-15T12:16:40;3.03;;;1.30;;
9848;SDS011;4963;51.444;6.528;2022-11-15T12:19:08;2.20;;;1.60;;
9848;SDS011;4963;51.444;6.528;2022-11-15T12:21:44;3.23;;;1.23;;
9848;SDS011;4963;51.444;6.528;2022-11-15T12:24:16;3.10;;;1.20;;
9848;SDS011;4963;51.444;6.528;2022-11-15T12:26:48;2.13;;;1.37;;
9848;SDS011;4963;51.444;6.528;2022-11-15T12:29:20;4.33;;;1.30;;
9848;SDS011;4963;51.444;6.528;2022-11-15T12:31:52;2.30;;;1.30;;
9848;SDS011;4963;51.444;6.528;2022-11-15T12:34:43;2.40;;;1.27;;
9848;SDS011;4963;51.444;6.528;2022-11-15T12:40:05;4.43;;;1.07;;
9848;SDS011;4963;51.444;6.528;2022-11-15T12:43:32;2.77;;;1.50;;
9848;SDS011;4963;51.444;6.528;2022-11-15T12:46:10;4.43;;;2.10;;
9848;SDS011;4963;51.444;6.528;2022-11-15T12:48:46;2.73;;;1.30;;
9848;SDS011;4963;51.444;6.528;2022-11-15T12:51:19;4.50;;;2.10;;
9848;SDS011;4963;51.444;6.528;2022-11-15T12:53:49;3.30;;;1.50;;
9848;SDS011;4963;51.444;6.528;2022-11-15T12:56:22;4.20;;;1.50;;
9848;SDS011;4963;51.444;6.528;2022-11-15T12:58:55;2.50;;;1.73;;
9848;SDS011;4963;51.444;6.528;2022-11-15T13:04:32;3.60;;;1.40;;
9848;SDS011;4963;51.444;6.528;2022-11-15T13:07:00;3.83;;;1.73;;
9848;SDS011;4963;51.444;6.528;2022-11-15T13:15:40;3.80;;;1.80;;
9848;SDS011;4963;51.444;6.528;2022-11-15T13:18:25;4.00;;;1.90;;
9848;SDS011;4963;51.444;6.528;2022-11-15T13:20:54;4.30;;;1.50;;
9848;SDS011;4963;51.444;6.528;2022-11-15T13:23:21;4.27;;;1.50;;
9848;SDS011;4963;51.444;6.528;2022-11-15T13:25:56;2.93;;;1.43;;
9848;SDS011;4963;51.444;6.528;2022-11-15T13:28:46;2.27;;;1.30;;
9848;SDS011;4963;51.444;6.528;2022-11-15T13:31:19;4.47;;;1.27;;
9848;SDS011;4963;51.444;6.528;2022-11-15T13:33:52;3.47;;;1.30;;
9848;SDS011;4963;51.444;6.528;2022-11-15T13:36:21;2.37;;;1.40;;
9848;SDS011;4963;51.444;6.528;2022-11-15T13:38:57;5.47;;;1.77;;
9848;SDS011;4963;51.444;6.528;2022-11-15T13:43:58;4.40;;;1.33;;
9848;SDS011;4963;51.444;6.528;2022-11-15T13:46:26;4.90;;;1.70;;
9848;SDS011;4963;51.444;6.528;2022-11-15T13:48:54;4.43;;;1.97;;
9848;SDS011;4963;51.444;6.528;2022-11-15T13:51:25;2.87;;;1.10;;
9848;SDS011;4963;51.444;6.528;2022-11-15T13:53:56;2.77;;;1.90;;
9848;SDS011;4963;51.444;6.528;2022-11-15T13:56:27;4.73;;;1.50;;
9848;SDS011;4963;51.444;6.528;2022-11-15T13:58:55;5.53;;;1.60;;
9848;SDS011;4963;51.444;6.528;2022-11-15T14:01:24;4.50;;;1.43;;
9848;SDS011;4963;51.444;6.528;2022-11-15T14:03:54;5.70;;;2.23;;
9848;SDS011;4963;51.444;6.528;2022-11-15T14:06:23;4.37;;;1.70;;
9848;SDS011;4963;51.444;6.528;2022-11-15T14:08:59;6.47;;;2.17;;
9848;SDS011;4963;51.444;6.528;2022-11-15T14:11:49;3.83;;;2.27;;
9848;SDS011;4963;51.444;6.528;2022-11-15T14:14:20;4.20;;;1.40;;
9848;SDS011;4963;51.444;6.528;2022-11-15T14:16:49;3.00;;;1.60;;
9848;SDS011;4963;51.444;6.528;2022-11-15T14:19:34;3.97;;;1.97;;
9848;SDS011;4963;51.444;6.528;2022-11-15T14:22:10;4.40;;;1.50;;
9848;SDS011;4963;51.444;6.528;2022-11-15T14:24:38;4.07;;;1.97;;
9848;SDS011;4963;51.444;6.528;2022-11-15T14:27:25;4.50;;;1.40;;
9848;SDS011;4963;51.444;6.528;2022-11-15T14:29:54;3.90;;;1.50;;
9848;SDS011;4963;51.444;6.528;2022-11-15T14:32:22;3.73;;;1.60;;
9848;SDS011;4963;51.444;6.528;2022-11-15T14:34:53;2.27;;;1.23;;
9848;SDS011;4963;51.444;6.528;2022-11-15T14:37:22;3.93;;;1.53;;
9848;SDS011;4963;51.444;6.528;2022-11-15T14:39:50;5.30;;;1.70;;
9848;SDS011;4963;51.444;6.528;2022-11-15T14:42:17;6.23;;;2.13;;
9848;SDS011;4963;51.444;6.528;2022-11-15T14:44:45;3.50;;;1.90;;
9848;SDS011;4963;51.444;6.528;2022-11-15T14:47:13;5.17;;;2.00;;
9848;SDS011;4963;51.444;6.528;2022-11-15T14:49:40;4.87;;;1.40;;
9848;SDS011;4963;51.444;6.528;2022-11-15T14:52:19;4.20;;;1.43;;
9848;SDS011;4963;51.444;6.528;2022-11-15T14:54:51;3.90;;;1.43;;
9848;SDS011;4963;51.444;6.528;2022-11-15T14:57:18;2.87;;;1.60;;
9848;SDS011;4963;51.444;6.528;2022-11-15T14:59:44;3.10;;;1.60;;
9848;SDS011;4963;51.444;6.528;2022-11-15T15:02:16;4.20;;;1.80;;
9848;SDS011;4963;51.444;6.528;2022-11-15T15:04:44;5.10;;;2.60;;
9848;SDS011;4963;51.444;6.528;2022-11-15T15:07:11;7.33;;;2.50;;
9848;SDS011;4963;51.444;6.528;2022-11-15T15:09:37;3.43;;;1.63;;
9848;SDS011;4963;51.444;6.528;2022-11-15T15:12:04;3.30;;;1.80;;
9848;SDS011;4963;51.444;6.528;2022-11-15T15:14:37;3.47;;;2.07;;
9848;SDS011;4963;51.444;6.528;2022-11-15T15:17:04;3.83;;;2.00;;
9848;SDS011;4963;51.444;6.528;2022-11-15T15:19:32;5.17;;;2.47;;
9848;SDS011;4963;51.444;6.528;2022-11-15T15:21:59;5.30;;;2.27;;
9848;SDS011;4963;51.444;6.528;2022-11-15T15:24:25;5.93;;;2.63;;
9848;SDS011;4963;51.444;6.528;2022-11-15T15:26:52;4.97;;;2.07;;
9848;SDS011;4963;51.444;6.528;2022-11-15T15:29:19;8.37;;;2.90;;
9848;SDS011;4963;51.444;6.528;2022-11-15T15:31:46;4.20;;;2.20;;
9848;SDS011;4963;51.444;6.528;2022-11-15T15:34:12;6.67;;;4.20;;
9848;SDS011;4963;51.444;6.528;2022-11-15T15:36:40;5.70;;;2.60;;
9848;SDS011;4963;51.444;6.528;2022-11-15T15:39:08;6.23;;;4.10;;
9848;SDS011;4963;51.444;6.528;2022-11-15T15:41:36;3.77;;;2.47;;
9848;SDS011;4963;51.444;6.528;2022-11-15T15:44:02;4.30;;;2.70;;
9848;SDS011;4963;51.444;6.528;2022-11-15T15:46:29;5.97;;;2.80;;
9848;SDS011;4963;51.444;6.528;2022-11-15T15:48:56;4.30;;;2.90;;